Canton, North Carolina
Current Conditions -  °F | °C
As of 4:54 PM on Monday 20 Oct 2014 (Local Time) from KAVL Reporting Station
Clear Clear  
Wind Chill: 66°   Ceiling: Unl
Heat Index: 66°   Visibility: 10mi
Dew Point: 48°   Wind: 8mph
Humidity: 52%   Direction: 200°SSW
Pressure: 30"   Gusts: NA
Location:  35.53°N, 82.84°W
Report Text: KAVL 202054Z 20007KT 10SM CLR 19/09 A3000 RMK AO2 SLP147 T01890089 56012
Loading
Personal Weather Stations






























Interactive Weather Map
Tropical Storm Tracking
New forecast layout! Learn more

10-Day Weather Forecast

Advertisements
Track Severe Weather on mobile